createdAt,value
2023-02-12T00:02:03.751Z,28.60
2023-02-12T00:05:06.554Z,17.27
2023-02-12T00:08:11.206Z,20.62
2023-02-12T00:11:20.318Z,21.12
2023-02-12T00:14:22.530Z,20.48
2023-02-12T00:17:25.138Z,22.65
2023-02-12T00:20:27.387Z,21.80
2023-02-12T00:23:30.192Z,29.37
2023-02-12T00:26:32.348Z,21.58
2023-02-12T00:29:34.784Z,19.17
2023-02-12T00:32:37.343Z,21.25
2023-02-12T00:35:39.813Z,22.37
2023-02-12T00:38:42.559Z,23.58
2023-02-12T00:44:47.901Z,23.50
2023-02-12T00:47:50.395Z,21.05
2023-02-12T00:50:52.657Z,23.12
2023-02-12T00:53:55.252Z,23.15
2023-02-12T00:56:57.918Z,21.00
2023-02-12T01:00:04.408Z,23.73
2023-02-12T01:03:06.720Z,27.08
2023-02-12T01:06:09.297Z,22.80
2023-02-12T01:09:12.062Z,25.10
2023-02-12T01:12:14.785Z,26.17
2023-02-12T01:15:18.005Z,22.20
2023-02-12T01:18:20.503Z,24.05
2023-02-12T01:21:29.027Z,25.75
2023-02-12T01:24:31.538Z,21.08
2023-02-12T01:27:34.047Z,18.77
2023-02-12T01:30:36.603Z,20.90
2023-02-12T01:33:39.488Z,23.95
2023-02-12T01:36:42.069Z,23.38
2023-02-12T01:39:44.445Z,19.62
2023-02-12T01:42:47.144Z,19.97
2023-02-12T01:45:54.096Z,18.70
2023-02-12T01:48:56.822Z,22.73
2023-02-12T01:52:15.456Z,21.60
2023-02-12T01:55:19.454Z,22.05
2023-02-12T01:58:24.100Z,20.65
2023-02-12T02:01:30.861Z,23.20
2023-02-12T02:04:41.691Z,20.80
2023-02-12T02:07:46.818Z,20.05
2023-02-12T02:10:49.506Z,23.48
2023-02-12T02:14:10.961Z,23.00
2023-02-12T02:17:19.278Z,21.17
2023-02-12T02:20:50.962Z,20.08
2023-02-12T02:24:15.209Z,18.98
2023-02-12T02:27:27.846Z,22.55
2023-02-12T02:30:55.649Z,21.87
2023-02-12T02:34:04.259Z,21.27
2023-02-12T02:37:12.921Z,19.90
2023-02-12T02:40:20.346Z,22.40
2023-02-12T02:43:29.216Z,20.90
2023-02-12T02:46:48.469Z,24.12
2023-02-12T02:49:59.457Z,20.83
2023-02-12T02:53:12.034Z,22.17
2023-02-12T02:56:20.185Z,16.83
2023-02-12T02:59:29.360Z,22.73
2023-02-12T03:02:36.139Z,20.85
2023-02-12T03:05:43.560Z,21.50
2023-02-12T03:09:00.841Z,21.23
2023-02-12T03:12:21.039Z,21.45
2023-02-12T03:15:46.560Z,24.35
2023-02-12T03:19:14.154Z,20.10
2023-02-12T03:22:23.237Z,18.27
2023-02-12T03:25:47.033Z,18.83
2023-02-12T03:32:05.619Z,21.27
2023-02-12T03:35:08.235Z,20.58
2023-02-12T03:38:38.984Z,21.20
2023-02-12T03:42:02.313Z,18.67
2023-02-12T03:45:24.908Z,18.60
2023-02-12T03:48:33.707Z,19.75
2023-02-12T03:51:44.925Z,21.87
2023-02-12T03:54:47.885Z,20.15
2023-02-12T03:57:58.880Z,21.57
2023-02-12T04:01:03.275Z,24.92
2023-02-12T04:04:07.994Z,18.50
2023-02-12T04:07:10.845Z,18.60
2023-02-12T04:10:13.776Z,24.75
2023-02-12T04:13:26.312Z,23.10
2023-02-12T04:16:36.977Z,20.83
2023-02-12T04:19:51.059Z,21.90
2023-02-12T04:23:03.042Z,20.80
2023-02-12T04:26:18.353Z,19.98
2023-02-12T04:30:02.924Z,20.37
2023-02-12T04:33:08.180Z,18.17
2023-02-12T04:36:25.039Z,20.40
2023-02-12T04:39:30.095Z,15.63
2023-02-12T04:42:41.825Z,19.08
2023-02-12T04:45:44.158Z,18.02
2023-02-12T04:48:53.918Z,22.20
2023-02-12T04:51:56.223Z,21.00
2023-02-12T04:54:58.746Z,21.27
2023-02-12T04:58:01.298Z,17.45
2023-02-12T05:01:03.881Z,17.83
2023-02-12T05:04:07.380Z,17.70
2023-02-12T05:07:11.793Z,13.68
2023-02-12T05:10:14.110Z,19.98
2023-02-12T05:13:16.644Z,19.42
2023-02-12T05:16:20.304Z,18.50
2023-02-12T05:19:22.887Z,20.67
2023-02-12T05:22:25.151Z,21.95
2023-02-12T05:25:27.678Z,25.30
2023-02-12T05:28:30.943Z,19.00
2023-02-12T05:34:36.602Z,17.95
2023-02-12T05:37:39.236Z,19.35
2023-02-12T05:40:43.141Z,17.60
2023-02-12T05:43:49.481Z,21.05
2023-02-12T05:46:51.922Z,16.70
2023-02-12T05:49:54.652Z,20.83
2023-02-12T05:52:56.876Z,18.00
2023-02-12T05:56:09.494Z,17.83
2023-02-12T05:59:18.016Z,18.65
2023-02-12T06:02:20.562Z,19.95
2023-02-12T06:05:23.044Z,20.85
2023-02-12T06:08:25.199Z,19.80
2023-02-12T06:11:28.077Z,21.17
2023-02-12T06:14:32.032Z,16.42
2023-02-12T06:17:35.408Z,16.42
2023-02-12T06:20:39.995Z,16.95
2023-02-12T06:23:42.815Z,16.20
2023-02-12T06:26:46.092Z,16.12
2023-02-12T06:32:51.041Z,15.30
2023-02-12T06:35:53.981Z,20.37
2023-02-12T06:38:56.619Z,16.77
2023-02-12T06:41:59.107Z,15.97
2023-02-12T06:45:01.392Z,16.65
2023-02-12T06:48:04.080Z,14.20
2023-02-12T06:51:12.472Z,17.30
2023-02-12T06:54:16.704Z,16.62
2023-02-12T06:57:18.925Z,16.52
2023-02-12T07:00:21.898Z,16.87
2023-02-12T07:03:24.128Z,15.40
2023-02-12T07:06:28.017Z,15.68
2023-02-12T07:09:30.304Z,18.58
2023-02-12T07:12:33.767Z,21.10
2023-02-12T07:15:39.516Z,16.80
2023-02-12T07:18:43.769Z,21.67
2023-02-12T07:21:46.014Z,15.68
2023-02-12T07:24:48.685Z,16.35
2023-02-12T07:27:50.977Z,16.27
2023-02-12T07:30:54.379Z,15.13
2023-02-12T07:33:58.553Z,17.83
2023-02-12T07:37:01.012Z,17.67
2023-02-12T07:40:03.608Z,16.90
2023-02-12T07:43:06.309Z,15.85
2023-02-12T07:46:17.237Z,18.20
2023-02-12T07:49:22.363Z,18.92
2023-02-12T07:52:24.562Z,16.48
2023-02-12T07:55:27.028Z,15.57
2023-02-12T07:58:29.230Z,17.08
2023-02-12T08:01:34.204Z,14.70
2023-02-12T08:04:36.729Z,16.00
2023-02-12T08:07:39.043Z,17.83
2023-02-12T08:10:41.634Z,12.45
2023-02-12T08:13:44.542Z,14.30
2023-02-12T08:16:49.337Z,16.45
2023-02-12T08:19:51.582Z,14.20
2023-02-12T08:22:54.095Z,12.25
2023-02-12T08:26:15.298Z,15.50
2023-02-12T08:29:21.392Z,23.27
2023-02-12T08:32:23.575Z,29.95
2023-02-12T08:35:26.132Z,30.27
2023-02-12T08:38:28.544Z,33.67
2023-02-12T08:41:31.504Z,28.40
2023-02-12T08:44:33.832Z,30.17
2023-02-12T08:47:36.390Z,28.23
2023-02-12T08:50:39.028Z,29.27
2023-02-12T08:53:43.446Z,30.17
2023-02-12T08:56:45.755Z,27.62
2023-02-12T08:59:49.131Z,29.52
2023-02-12T09:02:51.463Z,30.23
2023-02-12T09:05:54.841Z,28.70
2023-02-12T09:08:57.209Z,26.90
2023-02-12T09:11:59.758Z,26.52
2023-02-12T09:15:01.994Z,24.40
2023-02-12T09:18:04.992Z,24.80
2023-02-12T09:21:10.047Z,26.03
2023-02-12T09:24:12.725Z,21.30
2023-02-12T09:27:14.954Z,20.40
2023-02-12T09:30:17.872Z,22.65
2023-02-12T09:33:20.229Z,24.50
2023-02-12T09:36:22.758Z,25.62
2023-02-12T09:39:25.931Z,19.87
2023-02-12T09:46:04.630Z,21.15
2023-02-12T09:49:39.497Z,21.80
2023-02-12T09:52:41.924Z,18.33
2023-02-12T09:55:46.078Z,19.03
2023-02-12T09:58:58.988Z,17.98
2023-02-12T10:02:01.869Z,19.52
2023-02-12T10:05:06.614Z,13.65
2023-02-12T10:08:39.637Z,18.67
2023-02-12T10:12:12.992Z,12.98
2023-02-12T10:15:33.039Z,9.23
2023-02-12T10:19:02.800Z,9.05
2023-02-12T10:22:13.795Z,9.30
2023-02-12T10:25:41.107Z,8.57
2023-02-12T10:28:44.289Z,9.20
2023-02-12T10:32:16.114Z,7.85
2023-02-12T10:35:20.338Z,6.97
2023-02-12T10:38:29.025Z,9.02
2023-02-12T10:41:36.811Z,8.88
2023-02-12T10:44:39.404Z,8.50
2023-02-12T10:47:41.711Z,8.43
2023-02-12T10:51:08.876Z,9.87
2023-02-12T10:54:37.949Z,7.03
2023-02-12T10:57:40.594Z,7.75
2023-02-12T11:00:42.964Z,9.18
2023-02-12T11:03:45.638Z,8.17
2023-02-12T11:07:08.903Z,10.65
2023-02-12T11:10:22.469Z,10.30
2023-02-12T11:13:28.519Z,9.95
2023-02-12T11:16:34.725Z,9.20
2023-02-12T11:19:37.034Z,8.38
2023-02-12T11:22:53.788Z,8.97
2023-02-12T11:26:02.929Z,8.90
2023-02-12T11:29:21.295Z,8.55
2023-02-12T11:32:23.436Z,12.20
2023-02-12T11:35:33.802Z,10.45
2023-02-12T11:38:39.026Z,8.23
2023-02-12T11:41:42.905Z,7.87
2023-02-12T11:44:54.217Z,8.75
2023-02-12T11:47:57.319Z,10.88
2023-02-12T11:51:03.825Z,8.07
2023-02-12T11:54:06.582Z,8.82
2023-02-12T11:57:36.723Z,10.73
2023-02-12T12:01:02.793Z,10.20
2023-02-12T12:04:08.519Z,6.95
2023-02-12T12:07:22.620Z,8.18
2023-02-12T12:10:36.548Z,8.18
2023-02-12T12:13:48.555Z,9.80
2023-02-12T12:17:13.391Z,8.98
2023-02-12T12:20:25.061Z,6.90
2023-02-12T12:23:35.742Z,9.40
2023-02-12T12:26:40.952Z,9.05
2023-02-12T12:30:00.925Z,9.13
2023-02-12T12:33:09.072Z,8.32
2023-02-12T12:36:14.303Z,8.40
2023-02-12T12:39:25.473Z,10.02
2023-02-12T12:42:30.921Z,9.98
2023-02-12T12:46:08.050Z,9.90
2023-02-12T12:49:24.736Z,8.13
2023-02-12T12:52:38.709Z,9.57
2023-02-12T12:56:14.987Z,8.55
2023-02-12T12:59:30.112Z,7.53
2023-02-12T13:02:51.335Z,7.47
2023-02-12T13:06:29.022Z,7.60
2023-02-12T13:09:49.637Z,15.45
2023-02-12T13:12:57.749Z,22.42
2023-02-12T13:16:16.403Z,17.77
2023-02-12T13:19:31.503Z,17.65
2023-02-12T13:22:48.483Z,17.80
2023-02-12T13:26:13.992Z,19.75
2023-02-12T13:29:16.380Z,24.30
2023-02-12T13:32:30.797Z,30.00
2023-02-12T13:35:36.773Z,31.58
2023-02-12T13:38:44.524Z,30.80
2023-02-12T13:42:00.727Z,32.58
2023-02-12T13:45:19.645Z,36.55
2023-02-12T13:48:34.490Z,34.88
2023-02-12T13:51:45.002Z,31.60
2023-02-12T13:55:19.623Z,38.03
2023-02-12T13:58:40.185Z,36.72
2023-02-12T14:01:47.504Z,38.22
2023-02-12T14:04:53.356Z,38.22
2023-02-12T14:07:58.977Z,43.28
2023-02-12T14:11:08.575Z,35.08
2023-02-12T14:14:10.952Z,36.15
2023-02-12T14:17:28.867Z,37.40
2023-02-12T14:20:40.352Z,43.92
2023-02-12T14:23:46.443Z,38.25
2023-02-12T14:26:48.910Z,35.38
2023-02-12T14:30:09.997Z,41.93
2023-02-12T14:33:26.994Z,42.85
2023-02-12T14:36:32.462Z,33.63
2023-02-12T14:39:34.769Z,36.63
2023-02-12T14:42:37.291Z,30.10
2023-02-12T14:45:39.558Z,33.90
2023-02-12T14:49:05.905Z,34.72
2023-02-12T14:52:11.773Z,34.47
2023-02-12T14:55:35.284Z,34.90
2023-02-12T14:58:37.917Z,29.80
2023-02-12T15:01:42.519Z,29.87
2023-02-12T15:04:45.748Z,28.70
2023-02-12T15:08:12.013Z,32.42
2023-02-12T15:11:21.597Z,35.05
2023-02-12T15:14:28.314Z,33.33
2023-02-12T15:17:39.391Z,34.00
2023-02-12T15:20:50.644Z,29.12
2023-02-12T15:24:11.755Z,25.65
2023-02-12T15:27:15.865Z,31.87
2023-02-12T15:30:26.381Z,29.48
2023-02-12T15:33:33.371Z,35.40
2023-02-12T15:36:36.063Z,30.65
2023-02-12T15:39:44.380Z,27.08
2023-02-12T15:42:54.326Z,24.77
2023-02-12T15:45:58.047Z,30.05
2023-02-12T15:49:00.353Z,28.90
2023-02-12T15:52:22.036Z,29.73
2023-02-12T15:55:27.986Z,33.13
2023-02-12T15:58:36.867Z,31.20
2023-02-12T16:01:40.744Z,33.53
2023-02-12T16:04:44.853Z,29.25
2023-02-12T16:10:53.138Z,30.90
2023-02-12T16:14:01.602Z,36.03
2023-02-12T16:17:04.325Z,31.08
2023-02-12T16:20:24.752Z,33.58
2023-02-12T16:23:27.419Z,31.87
2023-02-12T16:26:29.815Z,31.10
2023-02-12T16:29:35.926Z,29.40
2023-02-12T16:32:40.568Z,31.27
2023-02-12T16:35:43.107Z,31.08
2023-02-12T16:38:49.647Z,35.03
2023-02-12T16:41:56.083Z,34.65
2023-02-12T16:44:58.382Z,34.25
2023-02-12T16:48:08.767Z,31.37
2023-02-12T16:51:24.917Z,36.30
2023-02-12T16:54:32.183Z,31.87
2023-02-12T16:57:34.396Z,35.00
2023-02-12T17:00:36.944Z,35.17
2023-02-12T17:03:39.913Z,36.05
2023-02-12T17:06:43.530Z,35.58
2023-02-12T17:09:45.838Z,42.13
2023-02-12T17:12:51.487Z,37.92
2023-02-12T17:16:01.502Z,34.40
2023-02-12T17:19:04.158Z,32.47
2023-02-12T17:22:08.926Z,38.30
2023-02-12T17:25:13.528Z,41.63
2023-02-12T17:28:15.942Z,38.17
2023-02-12T17:31:20.684Z,42.37
2023-02-12T17:34:23.712Z,37.72
2023-02-12T17:37:26.267Z,41.10
2023-02-12T17:40:28.506Z,40.03
2023-02-12T17:43:31.200Z,39.03
2023-02-12T17:46:33.902Z,39.53
2023-02-12T17:49:38.635Z,40.80
2023-02-12T17:52:41.008Z,42.58
2023-02-12T17:55:43.550Z,43.80
2023-02-12T17:58:46.587Z,40.35
2023-02-12T18:01:49.045Z,38.97
2023-02-12T18:04:51.914Z,44.03
2023-02-12T18:07:54.423Z,39.92
2023-02-12T18:10:57.250Z,34.10
2023-02-12T18:14:00.269Z,40.87
2023-02-12T18:17:03.067Z,41.75
2023-02-12T18:20:06.419Z,35.25
2023-02-12T18:23:10.152Z,49.47
2023-02-12T18:26:15.855Z,44.72
2023-02-12T18:29:18.365Z,41.60
2023-02-12T18:32:20.519Z,46.65
2023-02-12T18:35:23.814Z,41.80
2023-02-12T18:38:26.108Z,38.35
2023-02-12T18:41:31.446Z,47.22
2023-02-12T18:44:33.685Z,48.30
2023-02-12T18:47:36.411Z,50.45
2023-02-12T18:50:38.789Z,55.05
2023-02-12T18:53:41.882Z,49.47
2023-02-12T18:56:46.785Z,45.57
2023-02-12T18:59:50.752Z,48.85
2023-02-12T19:06:03.794Z,48.33
2023-02-12T19:09:06.691Z,46.95
2023-02-12T19:12:09.192Z,52.08
2023-02-12T19:15:11.781Z,50.15
2023-02-12T19:18:16.285Z,49.45
2023-02-12T19:21:18.938Z,52.88
2023-02-12T19:24:21.768Z,48.35
2023-02-12T19:27:24.029Z,47.60
2023-02-12T19:30:26.551Z,52.58
2023-02-12T19:33:28.740Z,45.53
2023-02-12T19:36:33.090Z,53.35
2023-02-12T19:39:35.314Z,45.55
2023-02-12T19:42:37.783Z,53.13
2023-02-12T19:45:39.984Z,52.33
2023-02-12T19:48:43.775Z,56.33
2023-02-12T19:51:46.907Z,46.40
2023-02-12T19:54:49.444Z,53.58
2023-02-12T19:57:51.718Z,47.85
2023-02-12T20:00:54.548Z,59.92
2023-02-12T20:03:58.220Z,49.92
2023-02-12T20:07:00.476Z,55.60
2023-02-12T20:10:03.208Z,55.50
2023-02-12T20:13:05.625Z,53.97
2023-02-12T20:16:11.583Z,58.00
2023-02-12T20:19:27.430Z,54.95
2023-02-12T20:22:29.981Z,54.13
2023-02-12T20:25:32.222Z,57.08
2023-02-12T20:28:36.981Z,56.63
2023-02-12T20:31:39.393Z,63.97
2023-02-12T20:34:50.523Z,57.77
2023-02-12T20:37:53.226Z,58.63
2023-02-12T20:40:56.064Z,57.78
2023-02-12T20:44:00.843Z,62.33
2023-02-12T20:47:03.583Z,57.70
2023-02-12T20:50:06.572Z,59.10
2023-02-12T20:53:09.277Z,59.10
2023-02-12T20:56:15.228Z,62.53
2023-02-12T20:59:18.832Z,57.17
2023-02-12T21:02:21.109Z,52.13
2023-02-12T21:05:23.672Z,56.23
2023-02-12T21:08:25.972Z,66.22
2023-02-12T21:11:29.704Z,52.40
2023-02-12T21:14:31.898Z,55.20
2023-02-12T21:17:34.894Z,45.33
2023-02-12T21:20:37.074Z,49.13
2023-02-12T21:23:40.206Z,44.75
2023-02-12T21:26:42.863Z,47.13
2023-02-12T21:29:45.514Z,47.03
2023-02-12T21:32:47.801Z,50.67
2023-02-12T21:35:50.457Z,41.00
2023-02-12T21:38:53.540Z,47.60
2023-02-12T21:41:59.974Z,47.42
2023-02-12T21:45:02.257Z,43.10
2023-02-12T21:48:05.031Z,46.95
2023-02-12T21:51:15.663Z,33.35
2023-02-12T21:54:18.933Z,38.72
2023-02-12T21:57:21.862Z,40.45
2023-02-12T22:00:24.595Z,38.78
2023-02-12T22:03:27.536Z,38.92
2023-02-12T22:06:30.261Z,36.67
2023-02-12T22:09:32.945Z,40.60
2023-02-12T22:12:36.019Z,36.17
2023-02-12T22:15:38.579Z,38.83
2023-02-12T22:18:41.735Z,37.25
2023-02-12T22:21:44.551Z,37.40
2023-02-12T22:24:46.873Z,34.17
2023-02-12T22:27:49.407Z,29.00
2023-02-12T22:30:51.661Z,34.65
2023-02-12T22:33:56.523Z,31.58
2023-02-12T22:36:58.697Z,25.88
2023-02-12T22:40:01.218Z,26.45
2023-02-12T22:43:03.396Z,24.10
2023-02-12T22:46:07.894Z,30.80
2023-02-12T22:49:10.520Z,24.77
2023-02-12T22:52:13.026Z,26.20
2023-02-12T22:55:15.389Z,32.28
2023-02-12T22:58:18.301Z,25.67
2023-02-12T23:01:21.139Z,28.27
2023-02-12T23:04:23.835Z,26.23
2023-02-12T23:07:26.336Z,23.83
2023-02-12T23:10:28.929Z,23.30
2023-02-12T23:13:31.268Z,22.80
2023-02-12T23:16:33.837Z,28.90
2023-02-12T23:19:36.059Z,25.55
2023-02-12T23:22:38.627Z,26.37
2023-02-12T23:25:41.657Z,24.20
2023-02-12T23:28:44.212Z,25.08
2023-02-12T23:31:47.010Z,20.90
2023-02-12T23:34:49.634Z,22.83
2023-02-12T23:37:52.107Z,20.52
2023-02-12T23:40:54.809Z,26.30
2023-02-12T23:43:57.241Z,23.35
2023-02-12T23:47:01.805Z,21.17
2023-02-12T23:50:04.733Z,24.12
2023-02-12T23:53:07.427Z,21.20
2023-02-12T23:56:09.700Z,22.52
2023-02-12T23:59:12.243Z,20.70
